Aérodrome :
LOGIN :

S'inscrire | Disclaimer

   EN    FR    IT 

 










Légende :    VFR   VFR Marginal   IFR   IFR Intensif   IFR Très Intensif
Visi : 
Plafond : 
>= 8 km
>= 3000ft
5 à 8 km
1000 à 3000 ft
1500m à 5 km
500 à 1000 ft
800 à 1500m
200 à 500 ft
< 800m
< 200 ft
Symboles :   Orages  Brouillard  Fortes neiges  Fortes précipitations  Vent > 20 kt
SIGMETs :   Divers  Orages  Givrage  Turbulence  Onde Orograph.  Cendres Volcan.






- Altitude de l'aérodrome : 1416 ft
- Code IATA : ZRH


LSZH - Zurich

DERNIER METAR :
  • 050120Z 14005KT 2000 1000N R14/P2000N R16/P2000N R28/P2000N R34/P2000N SN FEW002 BKN005 00/M00 Q0993 NOSIG

METARs EXPIRÉS :
  • 050050Z 15003KT 2000 SN BKN004 BKN012 00/M00 Q0992 NOSIG
  • 042350Z 16002KT 3000 SN SCT004 BKN006 00/M00 Q0991 TEMPO 2000
  • 042320Z 16002KT 5000 -SNRA SCT005 BKN010 00/M00 Q0991 RESNRA TEMPO 3000 SN
  • 042250Z 18002KT 6000 -SNRA BKN006 00/M01 Q0991 NOSIG

TAF TAF LSZH
Valide du 05 à 00h jusqu'au 06 à 06h UTC


042325Z 0500/0606 VRB03KT 9999 BKN008 TX03/0514Z TNM02/0505Z TNM01/0605Z
TEMPO 0500/0503 4000 -SN
PROB40
TEMPO 0500/0504 2500 SN BKN004
PROB30
TEMPO 0503/0506 4000 -SN
BECMG 0506/0509 BKN015
TEMPO 0511/0516 04005KT
PROB30
TEMPO 0512/0522 4000 -SN BKN012
PROB40
TEMPO 0522/0606 4000 -SN BKN008
PROB30
TEMPO 0600/0606 2500 SN BKN004
ATIS : +41 43 816 2295 (DEP) +41 43 816 2294 (ARR)



MET'MAP, la Météo Aéronautique d'un coup d'oeil ! - Copyright ORBIFLY Décembre 2007 - Disclaimer

ORBIFLY MET'MAP TEAM :

Programmation & Développement : Alexandra Zaïnal
Sur une idée originale de : Baudouin d'Aumeries
Assistance à la programmation : Marc-Olivier Méhu
Soutien technique & logistique : Manuel Goepfert

Contact : metmap@orbifly.com




SOURCES & CREDITS :

   NOAA